Meteo Giornale » Osservazioni meteo Turchia » Malatya-Erhac
ore: 15:50 - Osservazioni Meteo Malatya-Erhac
Lat. 38° 26' N Lon. 38° 5' E Alt. 862 metri s.l.m.
33 °C
Poco Nuvoloso
Temp. 24 Ore
16 °C
33 °C
Ovest/Nord-Ovest
16.7 Km/h
Dew point 5 °C
Umidità 17 %
Visibilità 10 Km
Il sole sorge alle ore 05:57
Il sole tramonta alle ore 18:58
| Data e Ora | Cielo e Fenomeni | T °C | DP °C | Um. % | Pres. hPa | Vis. km | Vento km/h | |
|---|---|---|---|---|---|---|---|---|
| Oggi h: 15:50 | Poco Nuvoloso | 33 | 5 | 17 | 1012 | 10 | O/NO 16.7 | |
| Oggi h: 15:20 | Poco Nuvoloso | 32 | 9 | 24 | 1013 | 10 | N 7.4 | |
| Oggi h: 14:50 | Poco Nuvoloso | 32 | 9 | 24 | 1013 | 10 | N 7.4 | |
| Oggi h: 14:20 | Poco Nuvoloso | 31 | 9 | 25 | 1013 | 10 | N 9.3 | |
| Oggi h: 13:50 | Poco Nuvoloso | 32 | 10 | 25 | 1013 | 10 | NE 14.8 | |
| Oggi h: 13:20 | Poco Nuvoloso | 30 | 11 | 30 | 1014 | 10 | E 14.8 | |
| Oggi h: 12:50 | Poco Nuvoloso | 30 | 12 | 33 | 1014 | 10 | N 11.1 | |
| Oggi h: 12:20 | Poco Nuvoloso | 30 | 12 | 33 | 1014 | 10 | S/SE 11.1 | |
| Oggi h: 11:50 | Poco Nuvoloso | 29 | 12 | 35 | 1014 | 10 | N 7.4 | |
| Oggi h: 11:20 | Poco Nuvoloso | 29 | 12 | 35 | 1015 | 10 | N 5.5 | |
| Oggi h: 10:50 | Sereno | 28 | 12 | 37 | 1015 | 10 | N 5.5 | |
| Oggi h: 10:20 | Sereno | 27 | 12 | 39 | 1015 | 10 | E/SE 7.4 | |
| Oggi h: 09:50 | Sereno | 26 | 12 | 41 | 1015 | 10 | E/NE 9.3 | |
| Oggi h: 09:20 | Sereno | 25 | 11 | 41 | 1015 | 10 | E 7.4 | |
| Oggi h: 08:50 | Sereno | 24 | 12 | 47 | 1015 | 10 | N 5.5 | |
| Oggi h: 08:20 | Sereno | 23 | 12 | 49 | 1015 | 10 | SE 9.3 | |
| Oggi h: 07:50 | Sereno | 22 | 11 | 49 | 1015 | 10 | N 5.5 | |
| Oggi h: 07:20 | Sereno | 22 | 11 | 49 | 1015 | 10 | N 1.8 | |
| Oggi h: 06:50 | Sereno | 19 | 11 | 59 | 1015 | 10 | N 5.5 | |
| Oggi h: 06:20 | Sereno | 16 | 10 | 67 | 1014 | 10 | O/SO 9.3 | |
| Oggi h: 05:50 | Sereno | 16 | 9 | 63 | 1014 | 10 | N 3.7 | |
| Oggi h: 05:20 | Sereno | 16 | 11 | 72 | 1014 | 10 | N 3.7 | |
| Oggi h: 04:50 | Sereno | 16 | 10 | 67 | 1014 | 10 | N 1.8 | |
| Oggi h: 04:20 | Sereno | 17 | 11 | 67 | 1014 | 10 | N 1.8 | |
| Oggi h: 03:50 | Sereno | 17 | 11 | 67 | 1014 | 10 | N 3.7 | |
| Oggi h: 03:20 | Sereno | 18 | 11 | 63 | 1014 | 10 | N 5.5 | |
| Oggi h: 02:50 | Sereno | 18 | 11 | 63 | 1013 | 10 | N 3.7 | |
| Oggi h: 02:20 | Sereno | 19 | 11 | 59 | 1013 | 10 | N 0 | |
| Oggi h: 01:50 | Sereno | 19 | 10 | 55 | 1014 | 10 | N 3.7 | |
| Oggi h: 01:20 | Sereno | 20 | 10 | 52 | 1013 | 10 | N 5.5 | |
| Oggi h: 00:50 | Sereno | 21 | 11 | 52 | 1013 | 10 | N 3.7 | |
| Oggi h: 00:20 | Sereno | 21 | 10 | 49 | 1013 | 10 | N 5.5 | |
| Ieri h: 23:50 | Sereno | 21 | 10 | 49 | 1013 | 10 | N 5.5 | |
| Ieri h: 23:20 | Sereno | 22 | 10 | 46 | 1013 | 10 | N 5.5 | |
| Ieri h: 22:50 | Sereno | 22 | 9 | 43 | 1013 | 10 | S/SO 7.4 | |
| Ieri h: 22:20 | Sereno | 24 | 9 | 38 | 1013 | 10 | N 1.8 | |
| Ieri h: 21:50 | Sereno | 25 | 9 | 36 | 1013 | 10 | N 5.5 | |
| Ieri h: 21:20 | Sereno | 25 | 9 | 36 | 1013 | 10 | N 7.4 | |
| Ieri h: 20:50 | Nuvoloso | 26 | 9 | 34 | 1012 | 10 | O/NO 18.5 | |
| Ieri h: 20:20 | Nuvoloso | 27 | 9 | 32 | 1012 | 10 | O/NO 18.5 | |
| Ieri h: 19:50 | Nuvoloso | 27 | 9 | 32 | 1012 | 10 | O/NO 18.5 | |
| Ieri h: 19:20 | Nuvoloso | 27 | 10 | 34 | 1011 | 10 | O/NO 14.8 | |
| Ieri h: 18:50 | Nuvoloso | 28 | 9 | 30 | 1011 | 10 | NO 16.7 | |
| Ieri h: 18:20 | Nuvoloso | 28 | 9 | 30 | 1011 | 10 | NO 18.5 | |
| Ieri h: 17:50 | Nuvoloso | 28 | 10 | 32 | 1011 | 10 | NO 20.3 | |
| Ieri h: 17:20 | Nuvoloso | 30 | 9 | 27 | 1011 | 10 | N 13 | |
| Ieri h: 16:50 | Nuvoloso | 31 | 7 | 22 | 1010 | 10 | E/NE 11.1 | |



